sensor_id;sensor_type;location;lat;lon;timestamp;temperature;humidity
66726;HTU21D;53638;51.062;5.804;2023-09-12T00:02:23;22.64;118.99
66726;HTU21D;53638;51.062;5.804;2023-09-12T00:04:49;22.68;118.99
66726;HTU21D;53638;51.062;5.804;2023-09-12T00:07:16;22.70;118.99
66726;HTU21D;53638;51.062;5.804;2023-09-12T00:09:42;22.68;118.99
66726;HTU21D;53638;51.062;5.804;2023-09-12T00:12:08;22.63;118.99
66726;HTU21D;53638;51.062;5.804;2023-09-12T00:14:34;22.63;118.99
66726;HTU21D;53638;51.062;5.804;2023-09-12T00:17:00;22.61;118.99
66726;HTU21D;53638;51.062;5.804;2023-09-12T00:19:25;22.61;118.99
66726;HTU21D;53638;51.062;5.804;2023-09-12T00:21:51;22.65;118.99
66726;HTU21D;53638;51.062;5.804;2023-09-12T00:24:18;22.58;118.99
66726;HTU21D;53638;51.062;5.804;2023-09-12T00:26:44;22.49;118.99
66726;HTU21D;53638;51.062;5.804;2023-09-12T00:29:10;22.43;118.99
66726;HTU21D;53638;51.062;5.804;2023-09-12T00:31:36;22.41;118.99
66726;HTU21D;53638;51.062;5.804;2023-09-12T00:34:02;22.40;118.99
66726;HTU21D;53638;51.062;5.804;2023-09-12T00:36:28;22.40;118.99
66726;HTU21D;53638;51.062;5.804;2023-09-12T00:38:54;22.41;118.99
66726;HTU21D;53638;51.062;5.804;2023-09-12T00:41:20;22.42;118.99
66726;HTU21D;53638;51.062;5.804;2023-09-12T00:43:46;22.39;118.99
66726;HTU21D;53638;51.062;5.804;2023-09-12T00:46:18;22.36;118.99
66726;HTU21D;53638;51.062;5.804;2023-09-12T00:48:46;22.29;118.99
66726;HTU21D;53638;51.062;5.804;2023-09-12T00:51:14;22.20;118.99
66726;HTU21D;53638;51.062;5.804;2023-09-12T00:53:42;22.12;118.99
66726;HTU21D;53638;51.062;5.804;2023-09-12T00:56:10;22.06;118.99
66726;HTU21D;53638;51.062;5.804;2023-09-12T00:58:36;22.02;118.99
66726;HTU21D;53638;51.062;5.804;2023-09-12T01:01:02;21.97;118.99
66726;HTU21D;53638;51.062;5.804;2023-09-12T01:03:28;21.96;118.99
66726;HTU21D;53638;51.062;5.804;2023-09-12T01:05:57;21.95;118.99
66726;HTU21D;53638;51.062;5.804;2023-09-12T01:08:23;21.89;118.99
66726;HTU21D;53638;51.062;5.804;2023-09-12T01:10:52;21.87;118.99
66726;HTU21D;53638;51.062;5.804;2023-09-12T01:13:19;21.89;118.99
66726;HTU21D;53638;51.062;5.804;2023-09-12T01:15:45;21.98;118.99
66726;HTU21D;53638;51.062;5.804;2023-09-12T01:18:11;22.08;118.99
66726;HTU21D;53638;51.062;5.804;2023-09-12T01:20:42;22.13;118.99
66726;HTU21D;53638;51.062;5.804;2023-09-12T01:28:18;22.20;118.99
66726;HTU21D;53638;51.062;5.804;2023-09-12T01:30:48;22.21;118.99
66726;HTU21D;53638;51.062;5.804;2023-09-12T01:33:16;22.19;118.99
66726;HTU21D;53638;51.062;5.804;2023-09-12T01:35:42;22.21;118.99
66726;HTU21D;53638;51.062;5.804;2023-09-12T01:38:09;22.22;118.99
66726;HTU21D;53638;51.062;5.804;2023-09-12T01:40:46;22.23;118.99
66726;HTU21D;53638;51.062;5.804;2023-09-12T01:43:17;22.16;118.99
66726;HTU21D;53638;51.062;5.804;2023-09-12T01:45:46;22.14;118.99
66726;HTU21D;53638;51.062;5.804;2023-09-12T01:48:19;22.11;118.99
66726;HTU21D;53638;51.062;5.804;2023-09-12T01:50:46;21.99;118.99
66726;HTU21D;53638;51.062;5.804;2023-09-12T01:53:12;21.92;118.99
66726;HTU21D;53638;51.062;5.804;2023-09-12T01:55:42;21.94;118.99
66726;HTU21D;53638;51.062;5.804;2023-09-12T01:58:09;21.94;118.99
66726;HTU21D;53638;51.062;5.804;2023-09-12T02:00:36;21.96;118.99
66726;HTU21D;53638;51.062;5.804;2023-09-12T02:03:03;21.99;118.99
66726;HTU21D;53638;51.062;5.804;2023-09-12T02:05:30;22.02;118.99
66726;HTU21D;53638;51.062;5.804;2023-09-12T02:07:55;22.04;118.99
66726;HTU21D;53638;51.062;5.804;2023-09-12T02:10:21;21.96;118.99
66726;HTU21D;53638;51.062;5.804;2023-09-12T02:12:47;21.91;118.99
66726;HTU21D;53638;51.062;5.804;2023-09-12T02:15:13;21.88;118.99
66726;HTU21D;53638;51.062;5.804;2023-09-12T02:17:40;21.92;118.99
66726;HTU21D;53638;51.062;5.804;2023-09-12T02:20:07;21.92;118.99
66726;HTU21D;53638;51.062;5.804;2023-09-12T02:22:34;21.91;118.99
66726;HTU21D;53638;51.062;5.804;2023-09-12T02:25:00;21.90;118.99
66726;HTU21D;53638;51.062;5.804;2023-09-12T02:27:26;21.87;118.99
66726;HTU21D;53638;51.062;5.804;2023-09-12T02:29:53;21.78;118.99
66726;HTU21D;53638;51.062;5.804;2023-09-12T02:32:19;21.75;118.99
66726;HTU21D;53638;51.062;5.804;2023-09-12T02:34:45;21.68;118.99
66726;HTU21D;53638;51.062;5.804;2023-09-12T02:37:10;21.58;118.99
66726;HTU21D;53638;51.062;5.804;2023-09-12T02:39:36;21.44;118.99
66726;HTU21D;53638;51.062;5.804;2023-09-12T02:42:02;21.31;118.99
66726;HTU21D;53638;51.062;5.804;2023-09-12T02:44:28;21.25;118.99
66726;HTU21D;53638;51.062;5.804;2023-09-12T02:46:54;21.23;118.99
66726;HTU21D;53638;51.062;5.804;2023-09-12T02:49:20;21.18;118.99
66726;HTU21D;53638;51.062;5.804;2023-09-12T02:51:46;21.06;118.99
66726;HTU21D;53638;51.062;5.804;2023-09-12T02:54:12;21.01;118.99
66726;HTU21D;53638;51.062;5.804;2023-09-12T02:56:38;20.95;118.99
66726;HTU21D;53638;51.062;5.804;2023-09-12T02:59:04;20.91;118.99
66726;HTU21D;53638;51.062;5.804;2023-09-12T03:01:30;20.90;118.99
66726;HTU21D;53638;51.062;5.804;2023-09-12T03:03:57;20.96;118.99
66726;HTU21D;53638;51.062;5.804;2023-09-12T03:06:23;21.01;118.99
66726;HTU21D;53638;51.062;5.804;2023-09-12T03:08:50;21.08;118.99
66726;HTU21D;53638;51.062;5.804;2023-09-12T03:11:16;21.15;118.99
66726;HTU21D;53638;51.062;5.804;2023-09-12T03:13:42;21.18;118.99
66726;HTU21D;53638;51.062;5.804;2023-09-12T03:16:14;21.23;118.99
66726;HTU21D;53638;51.062;5.804;2023-09-12T03:18:41;21.31;118.99
66726;HTU21D;53638;51.062;5.804;2023-09-12T03:21:07;21.37;118.99
66726;HTU21D;53638;51.062;5.804;2023-09-12T03:23:33;21.42;118.99
66726;HTU21D;53638;51.062;5.804;2023-09-12T03:26:03;21.45;118.99
66726;HTU21D;53638;51.062;5.804;2023-09-12T03:28:31;21.46;118.99
66726;HTU21D;53638;51.062;5.804;2023-09-12T03:31:07;21.48;118.99
66726;HTU21D;53638;51.062;5.804;2023-09-12T03:33:33;21.49;118.99
66726;HTU21D;53638;51.062;5.804;2023-09-12T03:35:59;21.49;118.99
66726;HTU21D;53638;51.062;5.804;2023-09-12T03:38:25;21.39;118.99
66726;HTU21D;53638;51.062;5.804;2023-09-12T03:40:51;21.31;118.99
66726;HTU21D;53638;51.062;5.804;2023-09-12T03:43:17;21.31;118.99
66726;HTU21D;53638;51.062;5.804;2023-09-12T03:45:43;21.33;118.99
66726;HTU21D;53638;51.062;5.804;2023-09-12T03:48:09;21.33;118.99
66726;HTU21D;53638;51.062;5.804;2023-09-12T03:50:35;21.29;118.99
66726;HTU21D;53638;51.062;5.804;2023-09-12T03:53:01;21.28;118.99
66726;HTU21D;53638;51.062;5.804;2023-09-12T03:55:27;21.23;118.99
66726;HTU21D;53638;51.062;5.804;2023-09-12T03:57:53;21.22;118.99
66726;HTU21D;53638;51.062;5.804;2023-09-12T04:00:20;21.19;118.99
66726;HTU21D;53638;51.062;5.804;2023-09-12T04:02:47;21.15;118.99
66726;HTU21D;53638;51.062;5.804;2023-09-12T04:05:14;21.06;118.99
66726;HTU21D;53638;51.062;5.804;2023-09-12T04:07:41;21.04;118.99
66726;HTU21D;53638;51.062;5.804;2023-09-12T04:10:07;21.06;118.99
66726;HTU21D;53638;51.062;5.804;2023-09-12T04:12:33;20.94;118.99
66726;HTU21D;53638;51.062;5.804;2023-09-12T04:14:59;20.79;118.99
66726;HTU21D;53638;51.062;5.804;2023-09-12T04:17:24;20.77;118.99
66726;HTU21D;53638;51.062;5.804;2023-09-12T04:19:50;20.88;118.99
66726;HTU21D;53638;51.062;5.804;2023-09-12T04:22:16;20.98;118.99
66726;HTU21D;53638;51.062;5.804;2023-09-12T04:24:42;21.09;118.99
66726;HTU21D;53638;51.062;5.804;2023-09-12T04:27:08;21.14;118.99
66726;HTU21D;53638;51.062;5.804;2023-09-12T04:29:34;21.14;118.99
66726;HTU21D;53638;51.062;5.804;2023-09-12T04:32:03;21.16;118.99
66726;HTU21D;53638;51.062;5.804;2023-09-12T04:34:30;21.10;118.99
66726;HTU21D;53638;51.062;5.804;2023-09-12T04:36:56;20.84;118.99
66726;HTU21D;53638;51.062;5.804;2023-09-12T04:39:23;20.46;118.99
66726;HTU21D;53638;51.062;5.804;2023-09-12T04:41:50;20.10;118.99
66726;HTU21D;53638;51.062;5.804;2023-09-12T04:44:16;19.92;118.99
66726;HTU21D;53638;51.062;5.804;2023-09-12T04:46:42;19.76;118.99
66726;HTU21D;53638;51.062;5.804;2023-09-12T04:49:08;19.66;118.99
66726;HTU21D;53638;51.062;5.804;2023-09-12T04:51:35;19.73;118.99
66726;HTU21D;53638;51.062;5.804;2023-09-12T04:54:00;19.88;118.99
66726;HTU21D;53638;51.062;5.804;2023-09-12T04:56:27;19.92;118.99
66726;HTU21D;53638;51.062;5.804;2023-09-12T04:58:52;20.03;118.99
66726;HTU21D;53638;51.062;5.804;2023-09-12T05:01:19;19.98;118.99
66726;HTU21D;53638;51.062;5.804;2023-09-12T05:03:45;19.95;118.99
66726;HTU21D;53638;51.062;5.804;2023-09-12T05:06:12;19.97;118.99
66726;HTU21D;53638;51.062;5.804;2023-09-12T05:08:44;19.97;118.99
66726;HTU21D;53638;51.062;5.804;2023-09-12T05:11:10;20.06;118.99
66726;HTU21D;53638;51.062;5.804;2023-09-12T05:13:36;20.00;118.99
66726;HTU21D;53638;51.062;5.804;2023-09-12T05:16:02;19.81;118.99
66726;HTU21D;53638;51.062;5.804;2023-09-12T05:18:28;19.69;118.99
66726;HTU21D;53638;51.062;5.804;2023-09-12T05:20:54;19.74;118.99
66726;HTU21D;53638;51.062;5.804;2023-09-12T05:23:20;19.82;118.99
66726;HTU21D;53638;51.062;5.804;2023-09-12T05:25:46;19.87;118.99
66726;HTU21D;53638;51.062;5.804;2023-09-12T05:28:12;19.94;118.99
66726;HTU21D;53638;51.062;5.804;2023-09-12T05:30:42;19.94;118.99
66726;HTU21D;53638;51.062;5.804;2023-09-12T05:33:08;20.01;118.99
66726;HTU21D;53638;51.062;5.804;2023-09-12T05:35:34;20.04;118.99
66726;HTU21D;53638;51.062;5.804;2023-09-12T05:38:00;20.03;118.99
66726;HTU21D;53638;51.062;5.804;2023-09-12T05:40:26;19.99;118.99
66726;HTU21D;53638;51.062;5.804;2023-09-12T05:42:54;20.02;118.99
66726;HTU21D;53638;51.062;5.804;2023-09-12T05:45:19;20.00;118.99
66726;HTU21D;53638;51.062;5.804;2023-09-12T05:47:46;19.97;118.99
66726;HTU21D;53638;51.062;5.804;2023-09-12T05:50:12;19.97;118.99
66726;HTU21D;53638;51.062;5.804;2023-09-12T05:52:37;20.00;118.99
66726;HTU21D;53638;51.062;5.804;2023-09-12T05:55:04;19.97;118.99
66726;HTU21D;53638;51.062;5.804;2023-09-12T05:57:31;19.98;118.99
66726;HTU21D;53638;51.062;5.804;2023-09-12T05:59:58;20.04;118.99
66726;HTU21D;53638;51.062;5.804;2023-09-12T06:02:27;20.06;118.99
66726;HTU21D;53638;51.062;5.804;2023-09-12T06:04:53;20.11;118.99
66726;HTU21D;53638;51.062;5.804;2023-09-12T06:07:19;20.12;118.99
66726;HTU21D;53638;51.062;5.804;2023-09-12T06:09:45;20.14;118.99
66726;HTU21D;53638;51.062;5.804;2023-09-12T06:12:11;20.13;118.99
66726;HTU21D;53638;51.062;5.804;2023-09-12T06:14:36;20.10;118.99
66726;HTU21D;53638;51.062;5.804;2023-09-12T06:17:02;20.13;118.99
66726;HTU21D;53638;51.062;5.804;2023-09-12T06:19:28;20.10;118.99
66726;HTU21D;53638;51.062;5.804;2023-09-12T06:21:54;20.06;118.99
66726;HTU21D;53638;51.062;5.804;2023-09-12T06:24:21;20.03;118.99
66726;HTU21D;53638;51.062;5.804;2023-09-12T06:26:47;20.03;118.99
66726;HTU21D;53638;51.062;5.804;2023-09-12T06:29:14;20.06;118.99
66726;HTU21D;53638;51.062;5.804;2023-09-12T06:31:40;20.06;118.99
66726;HTU21D;53638;51.062;5.804;2023-09-12T06:34:08;20.01;118.99
66726;HTU21D;53638;51.062;5.804;2023-09-12T06:36:34;20.01;118.99
66726;HTU21D;53638;51.062;5.804;2023-09-12T06:39:00;20.04;118.99
66726;HTU21D;53638;51.062;5.804;2023-09-12T06:41:27;20.12;118.99
66726;HTU21D;53638;51.062;5.804;2023-09-12T06:43:54;20.12;118.99
66726;HTU21D;53638;51.062;5.804;2023-09-12T06:46:22;20.11;118.99
66726;HTU21D;53638;51.062;5.804;2023-09-12T06:48:48;20.09;118.99
66726;HTU21D;53638;51.062;5.804;2023-09-12T06:51:16;20.13;118.99
66726;HTU21D;53638;51.062;5.804;2023-09-12T06:53:42;20.18;118.99
66726;HTU21D;53638;51.062;5.804;2023-09-12T06:56:09;20.22;118.99
66726;HTU21D;53638;51.062;5.804;2023-09-12T06:58:35;20.25;118.99
66726;HTU21D;53638;51.062;5.804;2023-09-12T07:01:04;20.30;118.99
66726;HTU21D;53638;51.062;5.804;2023-09-12T07:03:31;20.28;118.99
66726;HTU21D;53638;51.062;5.804;2023-09-12T07:05:57;20.22;118.99
66726;HTU21D;53638;51.062;5.804;2023-09-12T07:08:23;20.20;118.99
66726;HTU21D;53638;51.062;5.804;2023-09-12T07:10:49;20.19;118.99
66726;HTU21D;53638;51.062;5.804;2023-09-12T07:13:15;20.20;118.99
66726;HTU21D;53638;51.062;5.804;2023-09-12T07:15:41;20.28;118.99
66726;HTU21D;53638;51.062;5.804;2023-09-12T07:18:07;20.37;118.99
66726;HTU21D;53638;51.062;5.804;2023-09-12T07:20:34;20.45;118.99
66726;HTU21D;53638;51.062;5.804;2023-09-12T07:23:00;20.53;118.99
66726;HTU21D;53638;51.062;5.804;2023-09-12T07:25:26;20.54;118.99
66726;HTU21D;53638;51.062;5.804;2023-09-12T07:27:52;20.60;118.99
66726;HTU21D;53638;51.062;5.804;2023-09-12T07:30:19;20.71;118.99
66726;HTU21D;53638;51.062;5.804;2023-09-12T07:32:45;20.80;118.99
66726;HTU21D;53638;51.062;5.804;2023-09-12T07:35:11;20.85;118.99
66726;HTU21D;53638;51.062;5.804;2023-09-12T07:37:37;20.88;118.99
66726;HTU21D;53638;51.062;5.804;2023-09-12T07:40:03;20.91;118.99
66726;HTU21D;53638;51.062;5.804;2023-09-12T07:42:35;20.89;118.99
66726;HTU21D;53638;51.062;5.804;2023-09-12T07:45:02;20.91;118.99
66726;HTU21D;53638;51.062;5.804;2023-09-12T07:47:29;20.93;118.99
66726;HTU21D;53638;51.062;5.804;2023-09-12T07:49:54;20.93;118.99
66726;HTU21D;53638;51.062;5.804;2023-09-12T07:52:21;20.94;118.99
66726;HTU21D;53638;51.062;5.804;2023-09-12T07:54:49;20.90;118.99
66726;HTU21D;53638;51.062;5.804;2023-09-12T07:57:15;20.88;118.99
66726;HTU21D;53638;51.062;5.804;2023-09-12T07:59:41;20.90;118.99
66726;HTU21D;53638;51.062;5.804;2023-09-12T08:02:06;20.90;118.99
66726;HTU21D;53638;51.062;5.804;2023-09-12T08:04:33;20.90;118.99
66726;HTU21D;53638;51.062;5.804;2023-09-12T08:06:59;20.98;118.99
66726;HTU21D;53638;51.062;5.804;2023-09-12T08:09:53;21.03;118.99
66726;HTU21D;53638;51.062;5.804;2023-09-12T08:12:20;21.07;118.99
66726;HTU21D;53638;51.062;5.804;2023-09-12T08:14:46;21.13;118.99
66726;HTU21D;53638;51.062;5.804;2023-09-12T08:17:12;21.17;118.99
66726;HTU21D;53638;51.062;5.804;2023-09-12T08:19:40;21.20;118.99
66726;HTU21D;53638;51.062;5.804;2023-09-12T08:22:07;21.23;118.99
66726;HTU21D;53638;51.062;5.804;2023-09-12T08:24:34;21.27;118.99
66726;HTU21D;53638;51.062;5.804;2023-09-12T08:27:01;21.29;118.99
66726;HTU21D;53638;51.062;5.804;2023-09-12T08:29:29;21.31;118.99
66726;HTU21D;53638;51.062;5.804;2023-09-12T08:31:55;21.35;118.99
66726;HTU21D;53638;51.062;5.804;2023-09-12T08:34:21;21.46;118.99
66726;HTU21D;53638;51.062;5.804;2023-09-12T08:36:47;21.52;118.99
66726;HTU21D;53638;51.062;5.804;2023-09-12T08:39:16;21.53;118.99
66726;HTU21D;53638;51.062;5.804;2023-09-12T08:41:43;21.55;118.99
66726;HTU21D;53638;51.062;5.804;2023-09-12T08:44:12;21.58;118.99
66726;HTU21D;53638;51.062;5.804;2023-09-12T08:46:42;21.70;118.99
66726;HTU21D;53638;51.062;5.804;2023-09-12T08:49:08;21.83;118.99
66726;HTU21D;53638;51.062;5.804;2023-09-12T08:51:38;22.01;118.99
66726;HTU21D;53638;51.062;5.804;2023-09-12T08:54:05;22.17;118.99
66726;HTU21D;53638;51.062;5.804;2023-09-12T08:56:32;22.27;118.99
66726;HTU21D;53638;51.062;5.804;2023-09-12T08:59:01;22.35;118.99
66726;HTU21D;53638;51.062;5.804;2023-09-12T09:01:30;22.32;118.99
66726;HTU21D;53638;51.062;5.804;2023-09-12T09:03:57;22.29;118.99
66726;HTU21D;53638;51.062;5.804;2023-09-12T09:06:23;22.23;118.99
66726;HTU21D;53638;51.062;5.804;2023-09-12T09:08:51;22.24;118.99
66726;HTU21D;53638;51.062;5.804;2023-09-12T09:11:17;22.34;118.99
66726;HTU21D;53638;51.062;5.804;2023-09-12T09:13:43;22.40;118.99
66726;HTU21D;53638;51.062;5.804;2023-09-12T09:16:16;22.49;118.99
66726;HTU21D;53638;51.062;5.804;2023-09-12T09:19:00;22.57;118.99
66726;HTU21D;53638;51.062;5.804;2023-09-12T09:21:30;22.60;118.99
66726;HTU21D;53638;51.062;5.804;2023-09-12T09:23:59;22.62;118.99
66726;HTU21D;53638;51.062;5.804;2023-09-12T09:26:42;22.72;118.99
66726;HTU21D;53638;51.062;5.804;2023-09-12T09:29:10;22.82;118.99
66726;HTU21D;53638;51.062;5.804;2023-09-12T09:31:40;22.87;118.99
66726;HTU21D;53638;51.062;5.804;2023-09-12T09:34:11;22.85;118.99
66726;HTU21D;53638;51.062;5.804;2023-09-12T09:36:41;22.86;118.99
66726;HTU21D;53638;51.062;5.804;2023-09-12T09:39:08;22.88;118.99
66726;HTU21D;53638;51.062;5.804;2023-09-12T09:41:36;22.95;118.99
66726;HTU21D;53638;51.062;5.804;2023-09-12T09:44:03;23.02;118.99
66726;HTU21D;53638;51.062;5.804;2023-09-12T09:46:30;23.18;118.99
66726;HTU21D;53638;51.062;5.804;2023-09-12T09:48:55;23.38;118.99
66726;HTU21D;53638;51.062;5.804;2023-09-12T09:51:21;23.47;118.99
66726;HTU21D;53638;51.062;5.804;2023-09-12T09:53:51;23.64;118.99
66726;HTU21D;53638;51.062;5.804;2023-09-12T09:56:18;23.85;118.99
66726;HTU21D;53638;51.062;5.804;2023-09-12T09:58:50;24.16;118.99
66726;HTU21D;53638;51.062;5.804;2023-09-12T10:01:19;24.44;118.99
66726;HTU21D;53638;51.062;5.804;2023-09-12T10:03:47;24.85;118.99
66726;HTU21D;53638;51.062;5.804;2023-09-12T10:06:16;25.29;118.99
66726;HTU21D;53638;51.062;5.804;2023-09-12T10:08:45;25.71;118.99
66726;HTU21D;53638;51.062;5.804;2023-09-12T10:11:16;26.10;118.99
66726;HTU21D;53638;51.062;5.804;2023-09-12T10:13:49;26.41;118.99
66726;HTU21D;53638;51.062;5.804;2023-09-12T10:16:16;26.60;118.99
66726;HTU21D;53638;51.062;5.804;2023-09-12T10:18:55;26.70;118.99
66726;HTU21D;53638;51.062;5.804;2023-09-12T10:21:29;26.81;118.99
66726;HTU21D;53638;51.062;5.804;2023-09-12T10:23:58;26.85;118.99
66726;HTU21D;53638;51.062;5.804;2023-09-12T10:26:24;26.84;118.99
66726;HTU21D;53638;51.062;5.804;2023-09-12T10:28:51;26.82;118.99
66726;HTU21D;53638;51.062;5.804;2023-09-12T10:31:17;26.68;118.99
66726;HTU21D;53638;51.062;5.804;2023-09-12T10:33:46;26.51;118.99
66726;HTU21D;53638;51.062;5.804;2023-09-12T10:36:15;26.42;118.99
66726;HTU21D;53638;51.062;5.804;2023-09-12T10:38:45;26.41;118.99
66726;HTU21D;53638;51.062;5.804;2023-09-12T10:41:13;26.45;118.99
66726;HTU21D;53638;51.062;5.804;2023-09-12T10:43:42;26.41;118.99
66726;HTU21D;53638;51.062;5.804;2023-09-12T10:46:09;26.51;118.99
66726;HTU21D;53638;51.062;5.804;2023-09-12T10:48:36;26.79;118.99
66726;HTU21D;53638;51.062;5.804;2023-09-12T10:51:03;27.10;118.99
66726;HTU21D;53638;51.062;5.804;2023-09-12T10:53:32;27.44;118.99
66726;HTU21D;53638;51.062;5.804;2023-09-12T10:56:16;27.74;118.99
66726;HTU21D;53638;51.062;5.804;2023-09-12T11:01:32;29.59;118.99
66726;HTU21D;53638;51.062;5.804;2023-09-12T11:04:05;31.35;118.99
66726;HTU21D;53638;51.062;5.804;2023-09-12T11:06:46;32.47;115.06
66726;HTU21D;53638;51.062;5.804;2023-09-12T11:11:41;31.96;111.83
66726;HTU21D;53638;51.062;5.804;2023-09-12T11:14:08;31.76;112.14
66726;HTU21D;53638;51.062;5.804;2023-09-12T11:16:35;31.65;111.41
66726;HTU21D;53638;51.062;5.804;2023-09-12T11:19:13;32.39;105.67
66726;HTU21D;53638;51.062;5.804;2023-09-12T11:21:47;33.68;95.90
66726;HTU21D;53638;51.062;5.804;2023-09-12T11:24:15;33.97;94.04
66726;HTU21D;53638;51.062;5.804;2023-09-12T11:26:55;34.81;92.72
66726;HTU21D;53638;51.062;5.804;2023-09-12T11:29:22;35.21;89.09
66726;HTU21D;53638;51.062;5.804;2023-09-12T11:31:54;35.30;90.55
66726;HTU21D;53638;51.062;5.804;2023-09-12T11:34:20;36.27;85.67
66726;HTU21D;53638;51.062;5.804;2023-09-12T11:36:46;35.45;85.14
66726;HTU21D;53638;51.062;5.804;2023-09-12T11:39:23;33.91;86.35
66726;HTU21D;53638;51.062;5.804;2023-09-12T11:41:50;32.66;89.59
66726;HTU21D;53638;51.062;5.804;2023-09-12T11:44:18;31.72;93.88
66726;HTU21D;53638;51.062;5.804;2023-09-12T11:46:48;31.28;100.17
66726;HTU21D;53638;51.062;5.804;2023-09-12T11:49:16;31.05;105.60
66726;HTU21D;53638;51.062;5.804;2023-09-12T11:51:50;31.21;107.59
66726;HTU21D;53638;51.062;5.804;2023-09-12T11:54:20;32.49;103.62
66726;HTU21D;53638;51.062;5.804;2023-09-12T11:56:47;34.96;91.26
66726;HTU21D;53638;51.062;5.804;2023-09-12T11:59:15;36.81;82.38
66726;HTU21D;53638;51.062;5.804;2023-09-12T12:01:45;38.56;74.99
66726;HTU21D;53638;51.062;5.804;2023-09-12T12:04:12;40.23;71.00
66726;HTU21D;53638;51.062;5.804;2023-09-12T12:06:38;41.27;67.68
66726;HTU21D;53638;51.062;5.804;2023-09-12T12:09:04;41.85;66.70
66726;HTU21D;53638;51.062;5.804;2023-09-12T12:11:30;42.32;64.93
66726;HTU21D;53638;51.062;5.804;2023-09-12T12:13:57;42.80;63.53
66726;HTU21D;53638;51.062;5.804;2023-09-12T12:16:25;43.31;62.02
66726;HTU21D;53638;51.062;5.804;2023-09-12T12:18:51;43.42;61.57
66726;HTU21D;53638;51.062;5.804;2023-09-12T12:21:21;43.70;61.09
66726;HTU21D;53638;51.062;5.804;2023-09-12T12:23:57;43.72;60.89
66726;HTU21D;53638;51.062;5.804;2023-09-12T12:26:24;44.21;59.55
66726;HTU21D;53638;51.062;5.804;2023-09-12T12:28:52;44.73;59.57
66726;HTU21D;53638;51.062;5.804;2023-09-12T12:31:18;45.10;59.53
66726;HTU21D;53638;51.062;5.804;2023-09-12T12:33:48;45.29;59.15
66726;HTU21D;53638;51.062;5.804;2023-09-12T12:36:14;45.76;58.84
66726;HTU21D;53638;51.062;5.804;2023-09-12T12:38:40;45.73;58.42
66726;HTU21D;53638;51.062;5.804;2023-09-12T12:41:09;43.63;61.63
66726;HTU21D;53638;51.062;5.804;2023-09-12T12:43:35;40.62;66.35
66726;HTU21D;53638;51.062;5.804;2023-09-12T12:46:01;39.43;70.83
66726;HTU21D;53638;51.062;5.804;2023-09-12T12:48:32;39.92;70.83
66726;HTU21D;53638;51.062;5.804;2023-09-12T12:50:59;41.18;68.46
66726;HTU21D;53638;51.062;5.804;2023-09-12T12:53:39;42.68;63.95
66726;HTU21D;53638;51.062;5.804;2023-09-12T12:56:06;43.69;62.09
66726;HTU21D;53638;51.062;5.804;2023-09-12T12:58:32;44.43;61.12
66726;HTU21D;53638;51.062;5.804;2023-09-12T13:00:58;44.77;60.74
66726;HTU21D;53638;51.062;5.804;2023-09-12T13:03:24;45.40;59.51
66726;HTU21D;53638;51.062;5.804;2023-09-12T13:05:50;45.96;57.78
66726;HTU21D;53638;51.062;5.804;2023-09-12T13:08:16;46.64;56.53
66726;HTU21D;53638;51.062;5.804;2023-09-12T13:10:42;47.08;55.87
66726;HTU21D;53638;51.062;5.804;2023-09-12T13:13:08;47.45;55.02
66726;HTU21D;53638;51.062;5.804;2023-09-12T13:15:34;47.27;55.26
66726;HTU21D;53638;51.062;5.804;2023-09-12T13:18:00;47.04;55.21
66726;HTU21D;53638;51.062;5.804;2023-09-12T13:20:26;47.33;54.17
66726;HTU21D;53638;51.062;5.804;2023-09-12T13:22:52;47.61;53.36
66726;HTU21D;53638;51.062;5.804;2023-09-12T13:25:18;47.62;53.98
66726;HTU21D;53638;51.062;5.804;2023-09-12T13:27:45;47.34;54.68
66726;HTU21D;53638;51.062;5.804;2023-09-12T13:30:11;46.96;55.35
66726;HTU21D;53638;51.062;5.804;2023-09-12T13:32:37;46.96;52.93
66726;HTU21D;53638;51.062;5.804;2023-09-12T13:35:03;47.26;52.24
66726;HTU21D;53638;51.062;5.804;2023-09-12T13:37:29;47.71;51.33
66726;HTU21D;53638;51.062;5.804;2023-09-12T13:39:56;48.01;49.75
66726;HTU21D;53638;51.062;5.804;2023-09-12T13:42:23;48.19;48.57
66726;HTU21D;53638;51.062;5.804;2023-09-12T13:44:50;48.06;47.61
66726;HTU21D;53638;51.062;5.804;2023-09-12T13:47:16;48.38;45.25
66726;HTU21D;53638;51.062;5.804;2023-09-12T13:49:48;48.45;44.83
66726;HTU21D;53638;51.062;5.804;2023-09-12T13:52:14;48.37;43.41
66726;HTU21D;53638;51.062;5.804;2023-09-12T13:54:40;48.60;42.62
66726;HTU21D;53638;51.062;5.804;2023-09-12T13:57:06;48.22;43.38
66726;HTU21D;53638;51.062;5.804;2023-09-12T13:59:32;48.00;44.38
66726;HTU21D;53638;51.062;5.804;2023-09-12T14:01:58;47.85;43.48
66726;HTU21D;53638;51.062;5.804;2023-09-12T14:04:23;47.75;44.04
66726;HTU21D;53638;51.062;5.804;2023-09-12T14:06:49;47.82;42.39
66726;HTU21D;53638;51.062;5.804;2023-09-12T14:09:15;47.54;42.43
66726;HTU21D;53638;51.062;5.804;2023-09-12T14:11:41;47.98;40.95
66726;HTU21D;53638;51.062;5.804;2023-09-12T14:14:08;48.29;42.47
66726;HTU21D;53638;51.062;5.804;2023-09-12T14:16:35;48.30;41.88
66726;HTU21D;53638;51.062;5.804;2023-09-12T14:19:01;48.32;41.42
66726;HTU21D;53638;51.062;5.804;2023-09-12T14:21:26;48.51;40.97
66726;HTU21D;53638;51.062;5.804;2023-09-12T14:23:52;48.69;39.68
66726;HTU21D;53638;51.062;5.804;2023-09-12T14:26:18;48.79;40.11
66726;HTU21D;53638;51.062;5.804;2023-09-12T14:28:44;48.50;40.65
66726;HTU21D;53638;51.062;5.804;2023-09-12T14:31:11;48.05;40.67
66726;HTU21D;53638;51.062;5.804;2023-09-12T14:33:40;47.87;40.05
66726;HTU21D;53638;51.062;5.804;2023-09-12T14:36:08;47.06;42.58
66726;HTU21D;53638;51.062;5.804;2023-09-12T14:38:35;45.99;42.45
66726;HTU21D;53638;51.062;5.804;2023-09-12T14:41:01;45.39;44.33
66726;HTU21D;53638;51.062;5.804;2023-09-12T14:43:28;45.10;44.35
66726;HTU21D;53638;51.062;5.804;2023-09-12T14:45:54;44.27;43.94
66726;HTU21D;53638;51.062;5.804;2023-09-12T14:48:20;43.48;45.67
66726;HTU21D;53638;51.062;5.804;2023-09-12T14:50:46;43.64;45.34
66726;HTU21D;53638;51.062;5.804;2023-09-12T14:53:18;44.55;43.99
66726;HTU21D;53638;51.062;5.804;2023-09-12T14:55:44;45.51;43.68
66726;HTU21D;53638;51.062;5.804;2023-09-12T14:58:10;46.34;42.14
66726;HTU21D;53638;51.062;5.804;2023-09-12T15:00:36;46.35;42.45
66726;HTU21D;53638;51.062;5.804;2023-09-12T15:03:04;46.14;41.00
66726;HTU21D;53638;51.062;5.804;2023-09-12T15:05:30;44.88;43.14
66726;HTU21D;53638;51.062;5.804;2023-09-12T15:07:56;44.40;43.49
66726;HTU21D;53638;51.062;5.804;2023-09-12T15:10:21;44.50;43.87
66726;HTU21D;53638;51.062;5.804;2023-09-12T15:12:47;44.42;44.99
66726;HTU21D;53638;51.062;5.804;2023-09-12T15:15:13;43.12;47.24
66726;HTU21D;53638;51.062;5.804;2023-09-12T15:17:39;41.21;50.06